Port Alice, Canada
Current Conditions -  °F | °C
As of 6:00 AM on Thursday 29 Jan 2015 (Local Time) from CYZT Reporting Station
Broken Clouds Broken Clouds  
Wind Chill: 37°   Ceiling: 4500
Heat Index: 37°   Visibility: 15mi
Dew Point: 37°   Wind: 0mph
Humidity: 100%   Direction: NA
Pressure: 30.34"   Gusts: NA
Location:  50.38°N, 127.43°W
Report Text: CYZT 291400Z 00000KT 15SM BKN045 BKN110 03/03 A3034 RMK SC5AC1 SLP275
Loading
Personal Weather Stations






























Interactive Weather Map New forecast layout! Learn more

10-Day Weather Forecast

Advertisements
Track Severe Weather on mobile